Time;durP1;ratioP1;P1;durP2;ratioP2;P2;SDS_P1;SDS_P2;PMS_P1;PMS_P2;Temp;Humidity;BMP_temperature;BMP_pressure;BME280_temperature;BME280_humidity;BME280_pressure;Samples;Min_cycle;Max_cycle;Signal;HPM_P1;HPM_P2
2023/09/26 00:01:30;;;;;;;0.63;0.63;;;;;;;19.12;55.39;97214.53;10305539;28;20042;-27
2023/09/26 00:06:31;;;;;;;0.70;0.65;;;;;;;19.14;55.19;97212.84;10303777;28;20022;-27
2023/09/26 00:11:34;;;;;;;1.17;0.83;;;;;;;19.12;55.05;97224.69;10297491;28;20038;-26
2023/09/26 00:16:34;;;;;;;0.90;0.77;;;;;;;19.15;55.62;97210.31;10307713;28;20391;-27
2023/09/26 00:21:34;;;;;;;1.53;0.83;;;;;;;19.12;55.13;97212.84;10301607;28;20087;-27
2023/09/26 00:26:35;;;;;;;1.40;0.80;;;;;;;19.15;54.79;97214.53;10301913;28;20034;-27
2023/09/26 00:31:35;;;;;;;1.20;0.87;;;;;;;19.11;54.98;97217.91;10294228;28;20035;-27
2023/09/26 00:36:35;;;;;;;1.25;0.73;;;;;;;19.10;54.76;97217.03;10294801;28;20248;-27
2023/09/26 00:41:36;;;;;;;1.30;0.67;;;;;;;19.11;54.20;97218.78;10306210;28;20038;-27
2023/09/26 00:46:36;;;;;;;1.23;0.90;;;;;;;19.11;54.68;97217.91;10293452;28;20796;-27
2023/09/26 00:51:38;;;;;;;1.50;1.27;;;;;;;19.09;54.61;97220.44;10304363;28;20049;-27
2023/09/26 00:56:40;;;;;;;1.30;0.85;;;;;;;19.10;54.35;97216.22;10312306;28;20493;-27
2023/09/26 01:01:42;;;;;;;0.98;0.70;;;;;;;19.07;54.45;97211.97;10310005;28;20069;-27
2023/09/26 01:06:44;;;;;;;1.30;0.80;;;;;;;19.08;54.28;97213.66;10310981;28;20030;-27
2023/09/26 01:11:44;;;;;;;1.35;1.00;;;;;;;19.08;54.35;97207.75;10311233;28;20032;-27
2023/09/26 01:16:45;;;;;;;1.27;0.70;;;;;;;19.09;54.25;97204.38;10302410;28;20529;-27
2023/09/26 01:21:45;;;;;;;1.48;0.95;;;;;;;19.06;54.35;97209.41;10311940;28;20034;-27
2023/09/26 01:26:46;;;;;;;1.10;1.00;;;;;;;19.08;54.35;97210.28;10309757;28;20026;-26
2023/09/26 01:31:46;;;;;;;1.33;0.88;;;;;;;19.07;54.11;97206.03;10305809;28;20629;-27
2023/09/26 01:36:46;;;;;;;1.40;1.10;;;;;;;19.08;54.14;97203.50;10304397;28;20096;-26
2023/09/26 01:41:47;;;;;;;1.37;0.83;;;;;;;19.06;54.23;97199.25;10311446;28;20041;-27
2023/09/26 01:46:47;;;;;;;1.10;0.90;;;;;;;19.04;54.24;97195.88;10301641;28;20031;-26
2023/09/26 01:51:48;;;;;;;1.13;0.85;;;;;;;19.05;54.46;97200.97;10296315;28;20033;-28
2023/09/26 01:56:48;;;;;;;0.77;0.77;;;;;;;19.03;54.11;97194.19;10306378;28;20084;-26
2023/09/26 02:01:48;;;;;;;1.03;0.83;;;;;;;19.05;54.31;97202.63;10295684;28;20034;-27
2023/09/26 02:06:49;;;;;;;1.13;0.87;;;;;;;19.06;54.05;97201.78;10284728;28;20482;-27
2023/09/26 02:11:49;;;;;;;1.13;0.70;;;;;;;19.00;54.08;97189.09;10292332;28;20085;-27
2023/09/26 02:16:50;;;;;;;1.33;0.75;;;;;;;19.05;53.90;97202.63;10285609;28;20290;-27
2023/09/26 02:21:51;;;;;;;1.50;0.73;;;;;;;19.05;54.12;97192.47;10287632;28;20034;-27
2023/09/26 02:26:55;;;;;;;1.37;1.07;;;;;;;19.03;54.05;97189.97;10303176;28;20031;-27
2023/09/26 02:31:55;;;;;;;2.05;1.20;;;;;;;19.01;54.11;97178.09;10286448;28;20429;-27
2023/09/26 02:36:56;;;;;;;2.10;0.97;;;;;;;19.06;53.81;97189.09;10303412;28;20038;-26
2023/09/26 02:41:56;;;;;;;2.15;1.05;;;;;;;19.04;53.91;97181.50;10284805;28;20041;-27
2023/09/26 02:46:57;;;;;;;1.38;1.17;;;;;;;19.05;54.08;97180.66;10248448;28;1088323;-27
2023/09/26 02:51:57;;;;;;;1.10;0.60;;;;;;;19.05;54.05;97188.28;10289732;28;20038;-26
2023/09/26 02:56:58;;;;;;;2.23;0.80;;;;;;;19.04;53.78;97184.03;10286813;28;20030;-27
2023/09/26 03:01:58;;;;;;;1.40;1.05;;;;;;;19.04;53.87;97180.63;10286950;28;20034;-26
2023/09/26 03:06:59;;;;;;;0.80;0.67;;;;;;;19.03;53.81;97179.81;10288289;28;20420;-27
2023/09/26 03:11:59;;;;;;;1.47;1.00;;;;;;;19.01;54.27;97178.09;10289040;28;20531;-27
2023/09/26 03:17:00;;;;;;;1.37;1.10;;;;;;;19.00;54.16;97171.34;10284051;28;20297;-27
2023/09/26 03:22:02;;;;;;;1.57;0.93;;;;;;;19.02;53.87;97172.19;10288727;28;20293;-26
2023/09/26 03:27:02;;;;;;;1.42;0.90;;;;;;;19.00;53.84;97168.78;10283300;28;20432;-27
2023/09/26 03:32:03;;;;;;;1.70;0.93;;;;;;;19.02;53.69;97167.09;10284641;28;20131;-26
2023/09/26 03:37:03;;;;;;;1.92;1.02;;;;;;;19.01;53.74;97165.41;10286235;28;20478;-27
2023/09/26 03:42:04;;;;;;;1.83;0.90;;;;;;;19.02;53.84;97165.41;10290454;28;20031;-26
2023/09/26 03:47:04;;;;;;;0.65;0.65;;;;;;;18.97;54.08;97156.06;10285599;28;20104;-26
2023/09/26 03:52:05;;;;;;;2.93;0.87;;;;;;;19.01;53.98;97161.16;10286398;28;20031;-26
2023/09/26 03:57:05;;;;;;;0.70;0.70;;;;;;;18.98;53.94;97162.84;10284924;28;20074;-27
2023/09/26 04:02:05;;;;;;;1.33;1.00;;;;;;;19.03;53.72;97173.88;10282902;28;20034;-26
2023/09/26 04:07:06;;;;;;;1.27;0.87;;;;;;;19.03;53.75;97163.72;10284287;28;20038;-27
2023/09/26 04:12:07;;;;;;;2.95;0.90;;;;;;;19.03;53.64;97161.19;10283808;28;20290;-27
2023/09/26 04:17:07;;;;;;;1.77;0.90;;;;;;;19.03;53.81;97156.09;10282363;28;20042;-27
2023/09/26 04:22:08;;;;;;;1.57;0.80;;;;;;;19.05;53.65;97156.97;10285348;28;20109;-27
2023/09/26 04:27:08;;;;;;;2.53;1.13;;;;;;;19.05;53.70;97146.81;10283299;28;20344;-26
2023/09/26 04:32:10;;;;;;;1.70;0.93;;;;;;;19.05;53.59;97144.28;10282791;28;20290;-27
2023/09/26 04:37:11;;;;;;;2.13;0.80;;;;;;;19.05;53.66;97137.53;10279943;28;20031;-27
2023/09/26 04:42:11;;;;;;;1.40;0.90;;;;;;;19.06;53.65;97140.88;10285563;28;20049;-27
2023/09/26 04:47:11;;;;;;;2.60;1.13;;;;;;;18.99;53.75;97137.47;10284389;28;20093;-27
2023/09/26 04:52:12;;;;;;;8.20;1.27;;;;;;;18.86;54.48;97129.81;10283081;28;20038;-27
2023/09/26 04:57:12;;;;;;;2.53;1.20;;;;;;;18.79;54.34;97123.00;10284907;28;20089;-27
2023/09/26 05:02:13;;;;;;;1.65;1.08;;;;;;;18.92;53.89;97125.59;10284441;28;20053;-27
2023/09/26 05:07:14;;;;;;;5.40;1.57;;;;;;;18.96;54.09;97131.53;10279722;28;20045;-26
2023/09/26 05:12:14;;;;;;;1.40;1.00;;;;;;;18.96;54.32;97131.53;10284453;28;20270;-27
2023/09/26 05:17:14;;;;;;;1.83;0.90;;;;;;;18.99;53.75;97134.13;10284812;28;20490;-27
2023/09/26 05:22:15;;;;;;;2.60;0.97;;;;;;;18.96;53.70;97126.47;10284006;28;20026;-27
2023/09/26 05:27:15;;;;;;;2.63;1.07;;;;;;;18.99;53.61;97131.56;10283799;28;20089;-27
2023/09/26 05:32:16;;;;;;;2.67;0.90;;;;;;;18.90;53.37;97131.50;10284117;28;20038;-27
2023/09/26 05:37:16;;;;;;;3.43;0.97;;;;;;;18.85;53.01;97130.66;10282210;28;20041;-26
2023/09/26 05:42:16;;;;;;;2.67;0.93;;;;;;;18.79;53.62;97138.22;10285997;28;20029;-26
2023/09/26 05:47:17;;;;;;;5.93;1.40;;;;;;;18.86;53.93;97132.34;10286619;28;20030;-26
2023/09/26 05:52:18;;;;;;;2.10;1.43;;;;;;;18.88;54.36;97133.19;10288135;28;20041;-26
2023/09/26 05:57:18;;;;;;;2.78;1.17;;;;;;;18.89;54.16;97127.28;10290747;28;20302;-26
2023/09/26 06:02:19;;;;;;;2.80;1.00;;;;;;;18.88;54.64;97133.19;10291089;28;20031;-27
2023/09/26 06:07:19;;;;;;;2.87;0.77;;;;;;;18.91;54.45;97134.06;10290703;28;20031;-27
2023/09/26 06:12:19;;;;;;;1.63;0.87;;;;;;;18.89;54.76;97129.81;10289581;28;20034;-26
2023/09/26 06:17:20;;;;;;;1.42;0.90;;;;;;;18.91;54.55;97123.06;10286067;28;20034;-25
2023/09/26 06:22:20;;;;;;;1.00;0.90;;;;;;;18.94;54.17;97130.69;10289178;28;20129;-26
2023/09/26 06:27:21;;;;;;;4.37;1.00;;;;;;;18.93;54.31;97136.63;10288039;28;20046;-27
2023/09/26 06:32:21;;;;;;;2.13;0.90;;;;;;;18.93;54.16;97137.44;10290265;28;20117;-27
2023/09/26 06:37:21;;;;;;;1.90;1.03;;;;;;;18.95;54.12;97134.91;10287433;28;20668;-26
2023/09/26 06:42:22;;;;;;;1.63;1.07;;;;;;;18.98;54.39;97124.78;10288251;28;20280;-27
2023/09/26 06:47:22;;;;;;;1.57;0.97;;;;;;;18.96;54.40;97129.00;10289714;28;20117;-26
2023/09/26 06:52:23;;;;;;;0.88;0.70;;;;;;;18.98;54.09;97135.78;10287969;28;20387;-27
2023/09/26 06:57:26;;;;;;;1.70;1.23;;;;;;;18.95;54.34;97134.91;10287355;28;20409;-27
2023/09/26 07:02:26;;;;;;;0.75;0.70;;;;;;;18.96;53.96;97131.53;10289712;28;20810;-25
2023/09/26 07:07:31;;;;;;;2.50;2.30;;;;;;;18.96;54.44;97136.63;10287293;28;20030;-26
2023/09/26 07:12:32;;;;;;;1.10;0.90;;;;;;;18.97;54.40;97143.38;10284713;28;20089;-26
2023/09/26 07:17:33;;;;;;;1.08;0.90;;;;;;;19.00;54.14;97148.50;10291196;28;20043;-27
2023/09/26 07:22:34;;;;;;;1.08;0.63;;;;;;;18.98;54.20;97150.16;10284607;28;20027;-26
2023/09/26 07:27:34;;;;;;;0.98;0.75;;;;;;;19.00;54.15;97151.03;10285760;28;20466;-28
2023/09/26 07:32:35;;;;;;;1.90;1.07;;;;;;;18.98;54.64;97151.00;10288719;28;20097;-27
2023/09/26 07:37:35;;;;;;;1.48;0.95;;;;;;;19.01;54.37;97148.47;10287737;28;20815;-27
2023/09/26 07:42:36;;;;;;;1.77;1.10;;;;;;;18.99;54.69;97154.41;10285225;28;20039;-26
2023/09/26 07:47:37;;;;;;;1.40;0.80;;;;;;;19.00;54.83;97148.50;10290250;28;20042;-27
2023/09/26 07:52:37;;;;;;;1.47;0.80;;;;;;;19.03;54.60;97159.50;10287291;28;20413;-27
2023/09/26 07:57:38;;;;;;;1.20;0.80;;;;;;;19.04;54.57;97157.81;10284145;28;20050;-27
2023/09/26 08:02:38;;;;;;;1.03;0.80;;;;;;;19.05;54.71;97154.41;10282135;28;20046;-27
2023/09/26 08:07:42;;;;;;;1.17;1.00;;;;;;;19.04;54.80;97167.94;10284102;28;20038;-26
2023/09/26 08:12:42;;;;;;;1.02;0.77;;;;;;;19.04;54.90;97163.75;10284307;28;20026;-27
2023/09/26 08:17:43;;;;;;;2.10;0.60;;;;;;;19.05;54.64;97167.09;10286586;28;20031;-25
2023/09/26 08:22:43;;;;;;;0.80;0.63;;;;;;;19.05;54.95;97167.09;10284734;28;20294;-26
2023/09/26 08:27:44;;;;;;;2.85;0.90;;;;;;;19.04;54.81;97163.75;10285482;28;20391;-28
2023/09/26 08:32:44;;;;;;;1.17;0.77;;;;;;;19.05;54.87;97162.03;10286570;28;20047;-27
2023/09/26 08:37:45;;;;;;;1.23;0.90;;;;;;;19.08;54.80;97162.06;10285212;28;20049;-26
2023/09/26 08:42:46;;;;;;;0.90;0.67;;;;;;;19.08;54.88;97157.00;10285131;28;20398;-27
2023/09/26 08:47:48;;;;;;;1.20;0.70;;;;;;;19.08;54.99;97154.47;10286195;28;20086;-27
2023/09/26 08:52:48;;;;;;;2.25;0.70;;;;;;;19.08;54.95;97152.75;10281472;28;20477;-26
2023/09/26 08:57:50;;;;;;;1.30;0.63;;;;;;;19.08;54.98;97154.47;10278862;28;20050;-27
2023/09/26 09:02:51;;;;;;;1.00;0.80;;;;;;;19.07;54.78;97155.25;10286526;28;20039;-26
2023/09/26 09:07:51;;;;;;;1.23;0.90;;;;;;;19.04;55.05;97145.13;10282485;28;20042;-27
2023/09/26 09:13:03;;;;;;;1.00;0.90;;;;;;;19.08;55.25;97157.00;10284298;28;20039;-27
2023/09/26 09:18:06;;;;;;;1.10;0.80;;;;;;;19.10;55.00;97163.75;10293266;28;20035;-27
2023/09/26 09:23:07;;;;;;;0.75;0.60;;;;;;;19.09;55.25;97153.59;10292643;28;20086;-27
2023/09/26 09:28:07;;;;;;;0.73;0.63;;;;;;;19.11;55.00;97146.84;10289577;28;20556;-27
2023/09/26 09:33:09;;;;;;;2.47;0.90;;;;;;;19.08;55.16;97146.84;10295362;28;20038;-27
2023/09/26 09:38:12;;;;;;;0.50;0.50;;;;;;;19.06;55.01;97133.28;10288588;28;20042;-27
2023/09/26 09:43:13;;;;;;;0.93;0.68;;;;;;;19.09;55.22;97141.75;10289131;28;20089;-27
2023/09/26 09:48:14;;;;;;;1.30;0.80;;;;;;;19.09;55.12;97133.31;10292187;28;20477;-27
2023/09/26 09:53:20;;;;;;;1.00;0.70;;;;;;;19.10;54.97;97133.28;10292637;28;20332;-27
2023/09/26 09:58:27;;;;;;;0.70;0.60;;;;;;;19.09;54.98;97131.59;10289256;28;20023;-27
2023/09/26 10:03:28;;;;;;;1.45;0.70;;;;;;;19.10;54.94;97114.69;10293650;28;20069;-26
2023/09/26 10:08:29;;;;;;;1.75;0.85;;;;;;;19.10;55.08;97107.09;10286767;28;20065;-27
2023/09/26 10:13:30;;;;;;;0.73;0.63;;;;;;;19.12;55.16;97105.38;10287859;28;20046;-26
2023/09/26 10:18:30;;;;;;;1.05;0.75;;;;;;;19.09;55.25;97097.78;10294558;28;20122;-26
2023/09/26 10:23:30;;;;;;;0.93;0.70;;;;;;;19.12;55.24;97097.78;10288340;28;20524;-26
2023/09/26 10:28:31;;;;;;;1.17;0.80;;;;;;;19.12;55.23;97093.56;10287079;28;20696;-26
2023/09/26 10:33:35;;;;;;;0.90;0.65;;;;;;;19.15;55.12;97082.53;10290480;28;20300;-27
2023/09/26 10:38:35;;;;;;;0.65;0.40;;;;;;;19.19;54.96;97085.13;10287000;28;20046;-27
2023/09/26 10:43:36;;;;;;;1.10;0.97;;;;;;;19.13;55.59;97085.09;10278425;28;20237;-26
2023/09/26 10:48:38;;;;;;;1.13;0.73;;;;;;;19.21;55.27;97080.94;10289687;28;20484;-27
2023/09/26 10:53:41;;;;;;;1.15;0.73;;;;;;;19.26;55.32;97083.47;10287307;28;20045;-27
2023/09/26 10:58:41;;;;;;;1.75;0.75;;;;;;;19.27;55.29;97088.53;10287146;28;20038;-26
2023/09/26 11:03:42;;;;;;;0.63;0.50;;;;;;;19.23;54.89;97075.84;10289416;28;20121;-26
2023/09/26 11:08:43;;;;;;;2.65;1.40;;;;;;;19.27;55.47;97085.16;10287994;28;20093;-26
2023/09/26 11:13:43;;;;;;;1.08;0.90;;;;;;;19.29;55.50;97091.09;10286858;28;20497;-26
2023/09/26 11:18:44;;;;;;;5.05;1.65;;;;;;;19.31;55.22;97084.31;10290119;28;20528;-27
2023/09/26 11:23:45;;;;;;;9.93;1.20;;;;;;;19.30;55.26;97073.34;10283330;28;20031;-27
2023/09/26 11:28:45;;;;;;;3.22;1.50;;;;;;;19.29;55.35;97068.25;10285815;28;20429;-27
2023/09/26 11:33:46;;;;;;;2.47;1.00;;;;;;;19.31;55.43;97072.50;10288475;28;20050;-27
2023/09/26 11:38:49;;;;;;;7.40;2.58;;;;;;;19.33;55.42;97069.97;10286042;28;20649;-27
2023/09/26 11:43:52;;;;;;;7.60;3.00;;;;;;;19.32;55.43;97058.94;10276613;28;20046;-26
2023/09/26 11:48:52;;;;;;;7.65;2.45;;;;;;;19.35;55.56;97056.41;10287889;28;20042;-26
2023/09/26 11:53:52;;;;;;;6.13;2.40;;;;;;;19.35;55.63;97050.50;10282980;28;20454;-26
2023/09/26 11:58:53;;;;;;;5.87;1.87;;;;;;;19.35;55.31;97045.41;10285576;28;20298;-26
2023/09/26 12:03:54;;;;;;;4.80;1.88;;;;;;;19.35;55.58;97042.88;10288385;28;20807;-26
2023/09/26 12:08:54;;;;;;;5.47;1.90;;;;;;;19.27;56.24;97036.94;10284843;28;20097;-27
2023/09/26 12:13:55;;;;;;;11.97;3.27;;;;;;;19.32;56.78;97037.78;10282135;28;20039;-26
2023/09/26 12:18:55;;;;;;;8.93;1.80;;;;;;;19.35;57.10;97036.09;10284051;28;20077;-27
2023/09/26 12:23:56;;;;;;;10.55;2.15;;;;;;;19.32;57.33;97033.56;10281219;28;20058;-27
2023/09/26 12:28:57;;;;;;;4.25;1.95;;;;;;;19.29;57.00;97025.09;10282054;28;20039;-26
2023/09/26 12:33:57;;;;;;;11.63;1.70;;;;;;;19.31;57.37;97033.53;10286122;28;20496;-26
2023/09/26 12:38:59;;;;;;;3.23;1.63;;;;;;;19.29;57.51;97030.16;10283591;28;20543;-27
2023/09/26 12:44:00;;;;;;;6.93;1.58;;;;;;;19.31;57.17;97023.38;10282271;28;20035;-26
2023/09/26 12:49:00;;;;;;;5.67;1.60;;;;;;;19.33;56.86;97029.34;10290869;28;20035;-26
2023/09/26 12:54:01;;;;;;;6.03;2.23;;;;;;;19.36;56.94;97024.25;10293184;28;20298;-26
2023/09/26 12:59:02;;;;;;;8.43;1.55;;;;;;;19.35;56.74;97030.19;10291037;28;20031;-27
2023/09/26 13:04:03;;;;;;;10.35;1.83;;;;;;;19.34;57.02;97028.50;10294032;28;20115;-27
2023/09/26 13:09:04;;;;;;;6.85;2.50;;;;;;;19.30;57.24;97021.69;10290257;28;20046;-26
2023/09/26 13:14:05;;;;;;;10.32;3.15;;;;;;;19.33;57.33;97022.56;10289107;28;20037;-27
2023/09/26 13:19:06;;;;;;;8.52;2.28;;;;;;;19.33;57.44;97016.66;10293695;28;20041;-26
2023/09/26 13:24:06;;;;;;;4.38;2.50;;;;;;;19.32;57.51;97020.00;10290915;28;20035;-27
2023/09/26 13:29:07;;;;;;;9.98;1.70;;;;;;;19.34;57.48;97018.34;10288870;28;20081;-26
2023/09/26 13:34:07;;;;;;;4.10;1.80;;;;;;;19.34;57.47;97015.81;10292556;28;20031;-28
2023/09/26 13:39:08;;;;;;;4.50;2.20;;;;;;;19.32;57.28;97012.38;10288198;28;20300;-26
2023/09/26 13:44:11;;;;;;;7.63;3.10;;;;;;;19.30;57.47;97012.41;10287431;28;20062;-26
2023/09/26 13:49:11;;;;;;;11.00;4.22;;;;;;;19.35;57.64;97014.94;10292396;28;20034;-26
2023/09/26 13:54:12;;;;;;;7.20;2.55;;;;;;;19.35;57.37;97009.88;10286423;28;20057;-27
2023/09/26 13:59:13;;;;;;;8.77;2.38;;;;;;;19.34;57.39;97009.00;10288280;28;20026;-27
2023/09/26 14:04:13;;;;;;;4.97;2.00;;;;;;;19.35;57.17;97008.16;10291655;28;20023;-27
2023/09/26 14:09:13;;;;;;;6.70;2.20;;;;;;;19.37;57.37;97013.25;10290364;28;20089;-26
2023/09/26 14:14:14;;;;;;;5.03;1.90;;;;;;;19.34;57.13;97008.19;10284950;28;20553;-27
2023/09/26 14:19:14;;;;;;;5.57;1.95;;;;;;;19.37;57.17;97014.13;10291888;28;20541;-27
2023/09/26 14:24:15;;;;;;;4.07;1.70;;;;;;;19.37;57.39;97008.16;10290060;28;20581;-28
2023/09/26 14:29:16;;;;;;;4.63;1.83;;;;;;;19.35;57.40;97008.16;10285754;28;20490;-26
2023/09/26 14:34:16;;;;;;;3.70;1.60;;;;;;;19.36;57.36;97006.47;10290649;28;20039;-26
2023/09/26 14:39:16;;;;;;;7.63;1.90;;;;;;;19.36;57.39;97006.47;10284451;28;20131;-27
2023/09/26 14:44:19;;;;;;;2.57;1.73;;;;;;;19.36;57.44;97011.56;10284714;28;20029;-27
2023/09/26 14:49:20;;;;;;;4.45;1.70;;;;;;;19.36;57.34;97011.56;10290639;28;20035;-27
2023/09/26 14:54:20;;;;;;;3.03;1.20;;;;;;;19.36;57.40;97014.09;10282761;28;20047;-27
2023/09/26 14:59:21;;;;;;;8.00;1.93;;;;;;;19.36;57.48;97011.56;10286954;28;20489;-26
2023/09/26 15:04:21;;;;;;;4.93;1.25;;;;;;;19.36;57.25;96997.19;10289455;28;20441;-26
2023/09/26 15:09:24;;;;;;;5.30;1.50;;;;;;;19.38;57.43;96994.63;10286735;28;20037;-26
2023/09/26 15:14:24;;;;;;;3.25;1.38;;;;;;;19.32;57.22;96989.53;10282680;28;20042;-26
2023/09/26 15:19:25;;;;;;;2.38;1.20;;;;;;;19.32;57.74;97002.22;10289668;28;20126;-26
2023/09/26 15:24:25;;;;;;;4.20;1.60;;;;;;;19.39;58.14;96991.25;10284368;28;20027;-27
2023/09/26 15:29:25;;;;;;;4.65;1.88;;;;;;;19.40;58.08;97003.09;10283262;28;20050;-27
2023/09/26 15:34:26;;;;;;;4.73;1.60;;;;;;;19.37;58.02;96995.47;10289672;28;20057;-26
2023/09/26 15:39:26;;;;;;;3.90;1.80;;;;;;;19.37;58.05;96998.88;10284274;28;20406;-27
2023/09/26 15:44:32;;;;;;;3.83;1.53;;;;;;;19.40;57.95;97003.09;10280916;28;20043;-27
2023/09/26 15:49:34;;;;;;;4.07;1.83;;;;;;;19.38;57.60;97000.56;10284796;28;20528;-27
2023/09/26 15:54:34;;;;;;;5.53;2.28;;;;;;;19.38;58.16;97007.31;10287052;28;20039;-25
2023/09/26 15:59:34;;;;;;;3.57;2.00;;;;;;;19.38;58.23;97009.88;10283844;28;20034;-26
2023/09/26 16:04:35;;;;;;;5.32;2.08;;;;;;;19.38;58.32;97014.94;10287209;28;20304;-26
2023/09/26 16:09:35;;;;;;;3.67;1.77;;;;;;;19.37;58.02;97014.13;10298112;28;20039;-27
2023/09/26 16:14:36;;;;;;;4.67;2.37;;;;;;;19.38;57.87;97020.88;10280502;28;20300;-27
2023/09/26 16:19:36;;;;;;;8.77;2.00;;;;;;;19.37;58.39;97018.31;10286949;28;20416;-27
2023/09/26 16:24:37;;;;;;;3.30;1.73;;;;;;;19.38;58.43;97020.88;10284858;28;20086;-27
2023/09/26 16:29:37;;;;;;;4.68;2.28;;;;;;;19.38;58.41;97028.50;10281109;28;20035;-26
2023/09/26 16:34:38;;;;;;;8.03;2.13;;;;;;;19.33;58.30;97019.19;10285944;28;20043;-26
2023/09/26 16:39:38;;;;;;;3.50;1.52;;;;;;;19.37;58.23;97033.56;10285480;28;20293;-27
2023/09/26 16:44:41;;;;;;;4.77;1.60;;;;;;;19.36;58.15;97034.41;10280594;28;20486;-26
2023/09/26 16:49:41;;;;;;;2.55;1.50;;;;;;;19.35;58.29;97041.16;10286039;28;20039;-27
2023/09/26 16:54:42;;;;;;;4.60;1.45;;;;;;;19.40;58.41;97043.72;10278173;28;20041;-26
2023/09/26 16:59:42;;;;;;;6.37;1.70;;;;;;;19.42;58.14;97044.59;10284082;28;20064;-27
2023/09/26 17:04:42;;;;;;;3.93;1.80;;;;;;;19.42;58.13;97049.66;10284631;28;20292;-27
2023/09/26 17:09:43;;;;;;;8.53;1.87;;;;;;;19.43;58.03;97058.97;10284491;28;20035;-26
2023/09/26 17:14:45;;;;;;;4.30;1.50;;;;;;;19.45;58.13;97052.19;10279678;28;21065;-27
2023/09/26 17:19:46;;;;;;;7.40;2.22;;;;;;;19.41;58.40;97050.50;10285539;28;20039;-27
2023/09/26 17:24:46;;;;;;;3.88;1.73;;;;;;;19.42;58.09;97063.19;10282453;28;20061;-27
2023/09/26 17:29:47;;;;;;;5.57;2.17;;;;;;;19.44;58.02;97063.19;10279593;28;20042;-27
2023/09/26 17:34:49;;;;;;;6.85;1.95;;;;;;;19.44;57.75;97075.91;10287545;28;20034;-27
2023/09/26 17:39:49;;;;;;;5.45;1.67;;;;;;;19.43;57.93;97082.66;10288707;28;20453;-27
2023/09/26 17:44:50;;;;;;;4.85;1.85;;;;;;;19.45;57.67;97087.75;10286779;28;20094;-27
2023/09/26 17:49:50;;;;;;;9.20;2.37;;;;;;;19.39;61.00;97097.88;10289167;28;20038;-27
2023/09/26 17:54:50;;;;;;;7.40;2.23;;;;;;;19.38;60.19;97091.13;10290666;28;20049;-27
2023/09/26 17:59:51;;;;;;;6.47;2.70;;;;;;;19.34;60.97;97094.50;10286786;28;20050;-27
2023/09/26 18:04:54;;;;;;;6.00;2.80;;;;;;;19.32;60.96;97107.19;10290586;28;20053;-27
2023/09/26 18:09:54;;;;;;;5.10;2.67;;;;;;;19.25;62.19;97105.47;10289711;28;20417;-27
2023/09/26 18:14:55;;;;;;;4.13;2.30;;;;;;;19.26;61.91;97109.69;10288570;28;20033;-27
2023/09/26 18:19:56;;;;;;;6.05;2.42;;;;;;;19.27;61.60;97108.00;10293216;28;20039;-27
2023/09/26 18:24:56;;;;;;;2.97;2.20;;;;;;;19.37;60.97;97119.88;10287195;28;20349;-26
2023/09/26 18:29:57;;;;;;;5.43;2.67;;;;;;;19.45;60.59;97119.09;10279919;28;20073;-26
2023/09/26 18:34:57;;;;;;;6.35;2.67;;;;;;;19.48;60.80;97121.63;10286729;28;20397;-27
2023/09/26 18:39:57;;;;;;;5.27;2.47;;;;;;;19.49;61.16;97136.00;10282553;28;20078;-26
2023/09/26 18:44:58;;;;;;;3.63;2.37;;;;;;;19.49;60.87;97140.25;10280884;28;20037;-27
2023/09/26 18:49:58;;;;;;;7.20;3.33;;;;;;;19.49;60.78;97146.16;10286182;28;20042;-26
2023/09/26 18:54:58;;;;;;;3.47;2.38;;;;;;;19.51;60.43;97148.72;10290954;28;20035;-26
2023/09/26 19:00:00;;;;;;;6.43;2.20;;;;;;;19.51;60.23;97158.88;10282787;28;20576;-29
2023/09/26 19:05:02;;;;;;;3.72;2.33;;;;;;;19.51;60.55;97152.09;10285515;28;20062;-27
2023/09/26 19:10:03;;;;;;;5.40;2.70;;;;;;;19.50;60.48;97152.09;10279690;28;20043;-27
2023/09/26 19:15:04;;;;;;;5.30;2.40;;;;;;;19.51;60.51;97154.63;10280124;28;20453;-27
2023/09/26 19:20:06;;;;;;;4.40;1.98;;;;;;;19.52;60.14;97161.41;10285123;28;20039;-27
2023/09/26 19:25:08;;;;;;;3.92;2.33;;;;;;;19.52;60.30;97160.56;10276779;28;20512;-26
2023/09/26 19:30:09;;;;;;;4.00;2.30;;;;;;;19.51;60.17;97161.41;10279528;28;20038;-27
2023/09/26 19:35:10;;;;;;;4.63;2.67;;;;;;;19.54;59.86;97161.41;10284924;28;20042;-26
2023/09/26 19:40:11;;;;;;;2.30;1.80;;;;;;;19.53;60.54;97174.97;10286249;28;20047;-27
2023/09/26 19:45:11;;;;;;;6.05;2.08;;;;;;;19.52;60.75;97171.56;10282428;28;20563;-26
2023/09/26 19:50:12;;;;;;;5.45;2.30;;;;;;;19.53;60.11;97167.34;10288889;28;20051;-27
2023/09/26 19:55:12;;;;;;;4.10;2.15;;;;;;;19.50;60.79;97163.09;10279154;28;20396;-27
2023/09/26 20:00:14;;;;;;;3.43;2.17;;;;;;;19.52;60.80;97173.28;10283132;28;20045;-27
2023/09/26 20:05:14;;;;;;;3.10;2.35;;;;;;;19.50;60.39;97164.81;10280628;28;20760;-27
2023/09/26 20:10:14;;;;;;;4.65;2.20;;;;;;;19.50;60.10;97164.81;10286643;28;20096;-26
2023/09/26 20:15:15;;;;;;;5.72;2.35;;;;;;;19.49;60.18;97170.72;10281431;28;20039;-27
2023/09/26 20:20:15;;;;;;;3.75;2.13;;;;;;;19.49;60.22;97178.34;10285408;28;20063;-27
2023/09/26 20:25:16;;;;;;;3.63;2.17;;;;;;;19.50;59.78;97172.41;10283920;28;20047;-26
2023/09/26 20:30:17;;;;;;;4.07;2.25;;;;;;;19.48;59.74;97177.47;10283116;28;20050;-27
2023/09/26 20:35:18;;;;;;;3.95;1.75;;;;;;;19.48;59.71;97179.16;10288766;28;20041;-27
2023/09/26 20:40:18;;;;;;;4.50;2.08;;;;;;;19.49;59.81;97180.88;10285659;28;20039;-26
2023/09/26 20:45:19;;;;;;;3.53;1.77;;;;;;;19.49;59.99;97183.44;10280420;28;20038;-27
2023/09/26 20:50:19;;;;;;;6.43;2.23;;;;;;;19.51;59.55;97184.28;10286250;28;20039;-27
2023/09/26 20:55:20;;;;;;;2.67;1.45;;;;;;;19.50;59.42;97163.09;10284072;28;20034;-27
2023/09/26 21:00:20;;;;;;;5.40;1.87;;;;;;;19.39;59.62;97169.84;10283007;28;20057;-26
2023/09/26 21:05:20;;;;;;;3.73;2.00;;;;;;;19.49;59.21;97156.31;10290146;28;20035;-27
2023/09/26 21:10:21;;;;;;;2.47;1.90;;;;;;;19.47;59.82;97154.63;10289546;28;20045;-27
2023/09/26 21:15:25;;;;;;;3.60;2.10;;;;;;;19.46;59.99;97155.47;10297516;28;20097;-27
2023/09/26 21:20:25;;;;;;;4.78;1.95;;;;;;;19.46;60.03;97160.53;10288820;28;20916;-26
2023/09/26 21:25:25;;;;;;;4.10;1.70;;;;;;;19.48;60.56;97153.75;10299411;28;20517;-26
2023/09/26 21:30:26;;;;;;;5.27;2.13;;;;;;;19.47;60.47;97158.00;10286160;28;20510;-27
2023/09/26 21:35:26;;;;;;;3.90;1.75;;;;;;;19.48;60.32;97158.84;10293023;28;20345;-27
2023/09/26 21:40:27;;;;;;;3.93;1.90;;;;;;;19.47;59.46;97157.16;10291763;28;20540;-27
2023/09/26 21:45:27;;;;;;;3.63;1.87;;;;;;;19.47;59.30;97157.16;10288332;28;20290;-27
2023/09/26 21:50:27;;;;;;;3.50;1.80;;;;;;;19.46;58.93;97161.41;10292469;28;20043;-27
2023/09/26 21:55:29;;;;;;;3.83;1.47;;;;;;;19.44;58.71;97152.91;10290777;28;20122;-27
2023/09/26 22:00:29;;;;;;;3.00;1.40;;;;;;;19.47;59.00;97162.22;10289251;28;20298;-27
2023/09/26 22:05:31;;;;;;;2.63;1.70;;;;;;;19.46;59.33;97147.84;10291830;28;20477;-27
2023/09/26 22:10:34;;;;;;;2.25;1.77;;;;;;;19.47;59.75;97152.06;10289651;28;20035;-29
2023/09/26 22:15:35;;;;;;;2.55;1.50;;;;;;;19.47;60.19;97152.06;10285661;28;20065;-27
2023/09/26 22:20:36;;;;;;;1.77;1.30;;;;;;;19.45;60.25;97141.06;10289544;28;20549;-26
2023/09/26 22:25:36;;;;;;;2.60;1.40;;;;;;;19.46;60.12;97151.25;10289087;28;20299;-27
2023/09/26 22:30:36;;;;;;;1.63;1.40;;;;;;;19.45;60.25;97148.69;10285874;28;20030;-26
2023/09/26 22:35:37;;;;;;;2.07;1.50;;;;;;;19.43;60.99;97142.78;10290531;28;20065;-25
2023/09/26 22:40:38;;;;;;;2.40;1.70;;;;;;;19.43;61.17;97130.06;10289134;28;20298;-27
2023/09/26 22:45:39;;;;;;;2.05;1.60;;;;;;;19.41;61.70;97121.63;10284387;28;20290;-27
2023/09/26 22:50:39;;;;;;;1.77;1.40;;;;;;;19.41;60.92;97107.19;10288893;28;20054;-27
2023/09/26 22:55:40;;;;;;;2.17;1.60;;;;;;;19.42;60.87;97103.00;10295066;28;20066;-26
2023/09/26 23:00:40;;;;;;;2.67;1.73;;;;;;;19.36;61.05;97090.28;10286849;28;20034;-27
2023/09/26 23:05:41;;;;;;;2.83;1.75;;;;;;;19.40;61.34;97084.34;10291913;28;20031;-27
2023/09/26 23:10:41;;;;;;;1.88;1.23;;;;;;;19.40;60.99;97084.34;10289489;28;20039;-26
2023/09/26 23:15:41;;;;;;;2.80;1.57;;;;;;;19.40;60.60;97075.03;10280525;28;20397;-26